Time;durP1;ratioP1;P1;durP2;ratioP2;P2;SDS_P1;SDS_P2;PMS_P1;PMS_P2;Temp;Humidity;BMP_temperature;BMP_pressure;BME280_temperature;BME280_humidity;BME280_pressure;Samples;Min_cycle;Max_cycle;Signal;HPM_P1;HPM_P2
2022/05/06 00:00:31;;;;;;;18.83;10.77;;;;;;;16.41;62.10;101239.34;5004447;28;20586;-66
2022/05/06 00:02:59;;;;;;;16.70;10.63;;;;;;;16.38;62.47;101240.50;5008085;28;20260;-65
2022/05/06 00:05:27;;;;;;;18.10;10.63;;;;;;;16.38;61.96;101234.31;5010350;28;20328;-66
2022/05/06 00:07:56;;;;;;;18.90;10.40;;;;;;;16.41;61.72;101233.97;5005019;28;20309;-66
2022/05/06 00:10:24;;;;;;;17.10;10.83;;;;;;;16.39;62.16;101234.16;5002256;28;20208;-66
2022/05/06 00:12:52;;;;;;;17.17;11.00;;;;;;;16.33;62.08;101240.19;5003913;28;20804;-66
2022/05/06 00:15:19;;;;;;;16.30;10.70;;;;;;;16.32;61.84;101235.00;5009368;28;20966;-66
2022/05/06 00:17:47;;;;;;;19.30;11.07;;;;;;;16.33;61.63;101242.84;5016135;28;20300;-66
2022/05/06 00:20:17;;;;;;;15.03;10.37;;;;;;;16.32;61.46;101235.81;5006147;28;20237;-67
2022/05/06 00:22:44;;;;;;;18.63;10.63;;;;;;;16.32;61.79;101240.34;5012699;28;20443;-67
2022/05/06 00:25:14;;;;;;;24.30;11.47;;;;;;;16.30;61.62;101242.34;5006456;28;20302;-67
2022/05/06 00:27:41;;;;;;;19.27;10.33;;;;;;;16.28;61.77;101239.81;5003410;28;20223;-67
2022/05/06 00:30:11;;;;;;;17.43;10.33;;;;;;;16.29;61.74;101244.19;5000530;28;20213;-67
2022/05/06 00:32:40;;;;;;;20.07;10.60;;;;;;;16.26;61.84;101247.22;5011682;28;20807;-67
2022/05/06 00:35:08;;;;;;;16.20;11.00;;;;;;;16.26;61.96;101243.69;5011815;28;20295;-67
2022/05/06 00:37:36;;;;;;;14.47;10.10;;;;;;;16.21;61.92;101243.34;5010116;28;20585;-67
2022/05/06 00:40:05;;;;;;;16.73;10.23;;;;;;;16.26;61.91;101244.53;5007646;28;20220;-66
2022/05/06 00:42:34;;;;;;;15.80;10.60;;;;;;;16.27;62.39;101250.72;5008833;28;20216;-66
2022/05/06 00:45:03;;;;;;;16.80;10.70;;;;;;;16.29;62.06;101251.38;5008501;28;20298;-66
2022/05/06 00:47:33;;;;;;;18.10;10.53;;;;;;;16.27;61.60;101253.41;5009234;28;20219;-66
2022/05/06 00:50:01;;;;;;;16.97;11.17;;;;;;;16.25;61.61;101252.72;5002483;28;20262;-66
2022/05/06 00:52:30;;;;;;;18.83;10.60;;;;;;;16.22;61.71;101251.19;5003486;28;20323;-66
2022/05/06 00:54:58;;;;;;;18.10;11.43;;;;;;;16.20;61.95;101247.84;5005570;28;20328;-66
2022/05/06 00:57:26;;;;;;;17.67;9.90;;;;;;;16.19;62.14;101252.34;5008637;28;20213;-66
2022/05/06 01:02:40;;;;;;;17.90;11.03;;;;;;;16.17;61.97;101248.19;5012107;28;20292;-66
2022/05/06 01:05:09;;;;;;;17.80;10.67;;;;;;;16.13;61.96;101239.66;5018215;28;20274;-67
2022/05/06 01:07:37;;;;;;;16.67;10.23;;;;;;;16.12;62.32;101243.34;5015146;28;20245;-66
2022/05/06 01:10:06;;;;;;;14.97;10.43;;;;;;;16.12;62.16;101242.50;5005391;28;20234;-66
2022/05/06 01:12:34;;;;;;;15.83;10.13;;;;;;;16.08;62.32;101239.31;5005022;28;20261;-66
2022/05/06 01:15:17;;;;;;;16.60;10.87;;;;;;;16.08;61.91;101246.50;5005624;28;20696;-66
2022/05/06 01:17:45;;;;;;;16.07;10.37;;;;;;;16.08;61.84;101244.69;5013665;28;20204;-66
2022/05/06 01:20:15;;;;;;;15.93;9.87;;;;;;;16.09;62.05;101241.00;5015006;28;20608;-66
2022/05/06 01:22:46;;;;;;;18.30;10.23;;;;;;;16.11;62.35;101246.16;5010015;28;20280;-66
2022/05/06 01:25:14;;;;;;;19.67;10.37;;;;;;;16.08;62.04;101250.03;5009379;28;20288;-66
2022/05/06 01:27:47;;;;;;;12.60;9.10;;;;;;;16.10;62.46;101247.16;5006939;28;20214;-66
2022/05/06 01:30:25;;;;;;;13.97;9.30;;;;;;;16.07;62.22;101253.69;5004245;28;20493;-66
2022/05/06 01:32:53;;;;;;;15.93;8.97;;;;;;;16.05;61.92;101250.34;5013312;28;20312;-66
2022/05/06 01:35:23;;;;;;;14.10;8.67;;;;;;;16.03;61.78;101249.66;5000130;28;20216;-66
2022/05/06 01:37:55;;;;;;;15.67;8.97;;;;;;;16.02;61.99;101248.00;5010553;28;20275;-66
2022/05/06 01:40:28;;;;;;;16.33;9.40;;;;;;;15.98;61.62;101265.38;5012102;28;20622;-66
2022/05/06 01:42:58;;;;;;;15.87;8.50;;;;;;;15.99;61.39;101255.53;5010561;28;20225;-68
2022/05/06 01:45:28;;;;;;;18.93;9.83;;;;;;;15.99;61.09;101255.53;5006304;28;20232;-66
2022/05/06 01:47:57;;;;;;;16.17;9.93;;;;;;;15.96;61.48;101254.00;5004372;28;20303;-66
2022/05/06 01:50:27;;;;;;;14.77;9.37;;;;;;;15.92;61.73;101255.31;5000005;28;20259;-67
2022/05/06 01:52:57;;;;;;;17.13;10.53;;;;;;;15.89;61.66;101265.53;5003726;28;22980;-66
2022/05/06 01:55:25;;;;;;;14.77;9.50;;;;;;;15.88;61.84;101254.00;5009034;28;20483;-66
2022/05/06 01:57:53;;;;;;;18.47;9.53;;;;;;;15.82;62.13;101251.97;5013377;28;20211;-66
2022/05/06 02:00:21;;;;;;;15.70;8.63;;;;;;;15.78;61.25;101256.81;5004326;28;20593;-66
2022/05/06 02:02:48;;;;;;;14.70;9.20;;;;;;;15.74;61.35;101251.97;5006041;28;20205;-66
2022/05/06 02:05:19;;;;;;;11.27;7.13;;;;;;;15.68;61.57;101252.59;5003399;28;20209;-66
2022/05/06 02:07:48;;;;;;;12.90;7.93;;;;;;;15.67;61.54;101254.41;5002125;28;20265;-66
2022/05/06 02:10:18;;;;;;;13.10;7.87;;;;;;;15.66;61.36;101263.44;5005132;28;20584;-66
2022/05/06 02:12:45;;;;;;;11.63;7.33;;;;;;;15.70;61.41;101253.28;5012643;28;20630;-66
2022/05/06 02:15:14;;;;;;;12.10;7.87;;;;;;;15.69;61.16;101249.75;5001554;28;20297;-66
2022/05/06 02:17:43;;;;;;;12.43;7.70;;;;;;;15.66;61.11;101250.06;5006267;28;20256;-66
2022/05/06 02:20:18;;;;;;;13.47;7.43;;;;;;;15.66;60.95;101249.22;5003981;28;20252;-66
2022/05/06 02:22:46;;;;;;;12.37;7.20;;;;;;;15.65;60.69;101252.94;5006093;28;20196;-66
2022/05/06 02:25:13;;;;;;;12.13;7.53;;;;;;;15.63;60.70;101254.94;5003628;28;20216;-66
2022/05/06 02:27:42;;;;;;;12.17;7.33;;;;;;;15.63;60.36;101249.56;5004556;28;20335;-67
2022/05/06 02:33:13;;;;;;;9.40;6.67;;;;;;;15.58;59.93;101251.88;4988610;28;20587;-66
2022/05/06 02:35:41;;;;;;;11.30;6.40;;;;;;;15.51;60.13;101250.81;5003055;28;20556;-66
2022/05/06 02:38:09;;;;;;;11.20;6.80;;;;;;;15.48;60.08;101251.97;5010016;28;20211;-66
2022/05/06 02:40:39;;;;;;;10.43;6.30;;;;;;;15.48;60.56;101253.84;5007245;28;20216;-66
2022/05/06 02:43:08;;;;;;;10.30;6.93;;;;;;;15.46;60.13;101254.00;5004286;28;20217;-66
2022/05/06 02:45:36;;;;;;;11.07;6.60;;;;;;;15.44;60.03;101256.81;5000194;28;20214;-66
2022/05/06 02:48:05;;;;;;;12.80;7.20;;;;;;;15.41;59.94;101264.31;5010417;28;20216;-66
2022/05/06 02:50:34;;;;;;;13.03;6.67;;;;;;;15.42;60.13;101268.66;5010247;28;20217;-66
2022/05/06 02:53:01;;;;;;;9.23;6.70;;;;;;;15.37;59.69;101266.50;5005664;28;20275;-66
2022/05/06 02:55:29;;;;;;;13.87;6.60;;;;;;;15.36;59.24;101269.31;5002662;28;20201;-66
2022/05/06 02:57:57;;;;;;;11.17;6.13;;;;;;;15.33;59.30;101265.13;5003068;28;20303;-66
2022/05/06 03:00:28;;;;;;;9.77;6.10;;;;;;;15.34;59.55;101261.44;5002332;28;20224;-67
2022/05/06 03:02:56;;;;;;;9.33;5.80;;;;;;;15.28;59.80;101256.75;5004028;28;20201;-66
2022/05/06 03:05:24;;;;;;;11.40;6.37;;;;;;;15.26;59.43;101257.91;5008002;28;20213;-66
2022/05/06 03:07:52;;;;;;;12.87;7.67;;;;;;;15.15;59.52;101261.69;5006458;28;20300;-66
2022/05/06 03:10:20;;;;;;;13.57;6.53;;;;;;;15.14;59.56;101261.84;5005729;28;20582;-66
2022/05/06 03:12:47;;;;;;;9.13;6.13;;;;;;;15.16;59.63;101259.84;5004203;28;20231;-66
2022/05/06 03:15:17;;;;;;;12.63;6.10;;;;;;;15.17;59.10;101265.03;5002438;28;20336;-66
2022/05/06 03:17:46;;;;;;;8.37;6.03;;;;;;;15.12;59.56;101269.19;5001433;28;20296;-66
2022/05/06 03:20:14;;;;;;;14.00;6.10;;;;;;;15.05;59.60;101261.78;5003543;28;20657;-66
2022/05/06 03:22:44;;;;;;;9.33;6.10;;;;;;;15.02;59.63;101258.63;5009809;28;20209;-66
2022/05/06 03:25:12;;;;;;;10.73;6.17;;;;;;;14.99;59.46;101262.44;5014412;28;20295;-66
2022/05/06 03:30:26;;;;;;;8.40;5.93;;;;;;;14.91;59.56;101261.53;5005659;28;20214;-67
2022/05/06 03:32:56;;;;;;;12.70;6.57;;;;;;;14.88;59.62;101260.00;5007136;28;20221;-66
2022/05/06 03:35:24;;;;;;;12.77;7.10;;;;;;;14.86;59.34;101262.03;5005616;28;20205;-66
2022/05/06 03:37:52;;;;;;;13.70;6.57;;;;;;;14.82;59.44;101270.50;5008081;28;20264;-66
2022/05/06 03:40:23;;;;;;;9.60;5.77;;;;;;;14.79;59.03;101257.44;5004801;28;20296;-67
2022/05/06 03:42:57;;;;;;;11.77;6.20;;;;;;;14.82;59.18;101265.16;5008397;28;20267;-67
2022/05/06 03:45:25;;;;;;;10.07;5.67;;;;;;;14.81;59.52;101263.47;5011912;28;20219;-66
2022/05/06 03:47:54;;;;;;;9.90;6.03;;;;;;;14.81;59.01;101269.66;5010303;28;21137;-67
2022/05/06 03:53:09;;;;;;;10.33;5.83;;;;;;;14.73;58.93;101271.41;5014306;28;20241;-67
2022/05/06 03:55:39;;;;;;;11.97;6.23;;;;;;;14.70;59.23;101272.56;5006107;28;20687;-67
2022/05/06 03:58:07;;;;;;;11.00;6.10;;;;;;;14.66;59.19;101272.06;5009781;28;20212;-67
2022/05/06 04:00:37;;;;;;;12.33;6.10;;;;;;;14.66;58.90;101265.88;5010775;28;20213;-67
2022/05/06 04:03:05;;;;;;;11.40;6.00;;;;;;;14.64;58.88;101270.53;5005827;28;20448;-67
2022/05/06 04:05:35;;;;;;;11.60;6.20;;;;;;;14.56;59.04;101273.97;5007289;28;20225;-67
2022/05/06 04:08:04;;;;;;;11.00;6.23;;;;;;;14.51;58.95;101273.56;5008846;28;20796;-67
2022/05/06 04:10:31;;;;;;;13.87;7.43;;;;;;;14.47;59.23;101274.06;5009798;28;20213;-67
2022/05/06 04:12:59;;;;;;;8.53;6.10;;;;;;;14.45;59.10;101273.34;5005912;28;20297;-67
2022/05/06 04:15:27;;;;;;;9.27;5.73;;;;;;;14.43;59.34;101276.19;5009649;28;20242;-67
2022/05/06 04:17:55;;;;;;;10.27;5.80;;;;;;;14.43;59.00;101286.00;5010263;28;20264;-67
2022/05/06 04:25:55;;;;;;;9.03;5.73;;;;;;;14.40;59.44;101295.19;5023581;28;20306;-67
2022/05/06 04:28:31;;;;;;;9.87;6.43;;;;;;;14.36;59.65;101303.59;5014539;28;20217;-67
2022/05/06 04:30:59;;;;;;;11.70;6.30;;;;;;;14.39;59.46;101296.16;5011861;28;20252;-67
2022/05/06 04:33:30;;;;;;;13.00;6.00;;;;;;;14.39;59.68;101301.50;5008595;28;20247;-67
2022/05/06 04:36:04;;;;;;;10.23;5.53;;;;;;;14.37;59.77;101298.13;5017024;28;20206;-67
2022/05/06 04:38:33;;;;;;;11.67;5.67;;;;;;;14.40;59.78;101297.00;5010023;28;20368;-67
2022/05/06 04:41:01;;;;;;;9.37;5.67;;;;;;;14.38;59.30;101302.47;5015769;28;20224;-67
2022/05/06 04:43:32;;;;;;;9.33;5.90;;;;;;;14.42;59.67;101303.88;5017414;28;20212;-67
2022/05/06 04:46:00;;;;;;;9.23;5.70;;;;;;;14.37;59.27;101314.13;5014455;28;20217;-67
2022/05/06 04:48:29;;;;;;;8.70;5.77;;;;;;;14.36;59.67;101311.59;5010090;28;20208;-67
2022/05/06 04:50:57;;;;;;;9.80;5.20;;;;;;;14.39;59.66;101316.69;5011676;28;20212;-67
2022/05/06 04:53:24;;;;;;;11.30;6.47;;;;;;;14.37;59.35;101319.47;5010306;28;20572;-67
2022/05/06 04:55:53;;;;;;;10.67;5.50;;;;;;;14.41;59.05;101315.53;5014174;28;20305;-67
2022/05/06 04:58:21;;;;;;;9.13;5.40;;;;;;;14.39;59.00;101320.19;5007344;28;20652;-67
2022/05/06 05:00:49;;;;;;;10.47;5.13;;;;;;;14.37;58.95;101330.13;5009822;28;20712;-67
2022/05/06 05:03:20;;;;;;;8.27;5.20;;;;;;;14.45;59.24;101326.72;5010430;28;20573;-67
2022/05/06 05:05:48;;;;;;;9.10;5.07;;;;;;;14.49;59.38;101325.44;5008471;28;20235;-67
2022/05/06 05:08:16;;;;;;;9.33;5.30;;;;;;;14.50;58.77;101335.13;5010112;28;20284;-67
2022/05/06 05:10:43;;;;;;;12.33;4.93;;;;;;;14.55;58.86;101327.50;5008889;28;20883;-66
2022/05/06 05:13:12;;;;;;;6.53;4.50;;;;;;;14.61;58.56;101337.56;5007978;28;20759;-67
2022/05/06 05:15:40;;;;;;;12.27;5.20;;;;;;;14.67;58.06;101337.78;5004093;28;20348;-67
2022/05/06 05:18:09;;;;;;;10.83;4.90;;;;;;;14.73;57.80;101332.81;5011570;28;20209;-68
2022/05/06 05:20:37;;;;;;;9.17;4.60;;;;;;;14.77;57.70;101339.53;5004129;28;20517;-67
2022/05/06 05:23:05;;;;;;;9.43;5.20;;;;;;;14.77;58.15;101332.38;5012064;28;20307;-68
2022/05/06 05:25:33;;;;;;;10.23;5.30;;;;;;;14.80;58.26;101336.56;5011785;28;20627;-68
2022/05/06 05:28:01;;;;;;;9.33;4.83;;;;;;;14.83;58.04;101333.59;5011211;28;20220;-67
2022/05/06 05:30:30;;;;;;;10.20;5.20;;;;;;;14.89;57.78;101335.63;5006509;28;20216;-68
2022/05/06 05:32:58;;;;;;;11.77;5.13;;;;;;;14.86;57.76;101335.94;5010229;28;20304;-67
2022/05/06 05:35:27;;;;;;;10.40;5.03;;;;;;;14.89;58.10;101335.63;5002293;28;20670;-67
2022/05/06 05:37:54;;;;;;;10.33;4.87;;;;;;;14.91;57.30;101338.97;5011865;28;20205;-67
2022/05/06 05:40:22;;;;;;;6.83;5.20;;;;;;;14.93;57.22;101342.34;5011622;28;20206;-67
2022/05/06 05:42:50;;;;;;;7.23;4.37;;;;;;;14.97;57.39;101338.34;5011817;28;20243;-68
2022/05/06 05:48:20;;;;;;;8.33;4.93;;;;;;;15.02;57.10;101336.06;5005688;28;20239;-68
2022/05/06 05:50:49;;;;;;;8.57;4.53;;;;;;;15.09;57.11;101344.28;5009679;28;20654;-68
2022/05/06 05:53:17;;;;;;;10.63;4.87;;;;;;;15.10;57.05;101349.47;5012164;28;20256;-68
2022/05/06 05:55:44;;;;;;;8.70;4.40;;;;;;;15.12;57.48;101344.81;5010263;28;20233;-70
2022/05/06 05:58:12;;;;;;;5.87;4.20;;;;;;;15.16;56.96;101343.50;5010864;28;20284;-68
2022/05/06 06:00:40;;;;;;;7.87;4.30;;;;;;;15.20;56.61;101349.38;5011900;28;20296;-68
2022/05/06 06:03:09;;;;;;;10.00;4.30;;;;;;;15.21;56.28;101351.91;5013678;28;20215;-68
2022/05/06 06:05:37;;;;;;;10.87;4.43;;;;;;;15.18;55.98;101362.91;5013033;28;20208;-68
2022/05/06 06:08:05;;;;;;;7.83;4.33;;;;;;;15.20;56.55;101358.25;5007361;28;20469;-67
2022/05/06 06:10:34;;;;;;;8.87;4.23;;;;;;;15.23;56.79;101360.59;5007454;28;20213;-67
2022/05/06 06:13:04;;;;;;;7.53;3.80;;;;;;;15.30;56.67;101360.81;5002521;28;20292;-68
2022/05/06 06:15:32;;;;;;;13.93;3.97;;;;;;;15.33;58.46;101360.47;5001817;28;20255;-67
2022/05/06 06:18:00;;;;;;;7.87;3.97;;;;;;;15.45;56.57;101359.22;5007712;28;20240;-68
2022/05/06 06:20:29;;;;;;;7.00;4.00;;;;;;;15.52;56.30;101362.94;5010964;28;20205;-68
2022/05/06 06:22:56;;;;;;;12.03;3.73;;;;;;;15.52;56.03;101364.78;5012210;28;20666;-69
2022/05/06 06:25:24;;;;;;;6.80;3.83;;;;;;;15.51;56.31;101369.28;5012501;28;20204;-68
2022/05/06 06:27:52;;;;;;;9.97;4.13;;;;;;;15.55;56.16;101359.16;5016959;28;20209;-69
2022/05/06 06:30:20;;;;;;;5.67;3.67;;;;;;;15.59;55.89;101366.69;5012555;28;20214;-68
2022/05/06 06:32:52;;;;;;;7.83;3.67;;;;;;;15.60;56.07;101368.34;5007953;28;20296;-68
2022/05/06 06:35:22;;;;;;;7.77;3.80;;;;;;;15.65;55.61;101362.56;5006795;28;21253;-68
2022/05/06 06:37:51;;;;;;;12.20;4.17;;;;;;;15.67;55.78;101369.41;5009110;28;20220;-69
2022/05/06 06:40:19;;;;;;;6.77;3.90;;;;;;;15.70;55.80;101362.91;5006033;28;20336;-69
2022/05/06 06:42:47;;;;;;;9.07;3.93;;;;;;;15.73;55.22;101366.09;5005929;28;20209;-69
2022/05/06 06:45:14;;;;;;;7.23;3.90;;;;;;;15.81;54.79;101365.31;5003546;28;20205;-68
2022/05/06 06:47:43;;;;;;;6.00;3.80;;;;;;;15.83;54.90;101363.31;5005740;28;20412;-67
2022/05/06 06:50:11;;;;;;;8.37;3.97;;;;;;;15.86;54.99;101362.97;5000983;28;20293;-69
2022/05/06 06:52:38;;;;;;;7.13;3.80;;;;;;;15.88;54.59;101374.34;5011185;28;20219;-69
2022/05/06 06:55:08;;;;;;;8.00;3.87;;;;;;;15.91;54.62;101374.03;5007957;28;20657;-67
2022/05/06 06:57:36;;;;;;;8.10;4.00;;;;;;;15.90;54.36;101372.34;5012095;28;20303;-68
2022/05/06 07:00:05;;;;;;;10.03;3.90;;;;;;;15.93;54.30;101368.50;5015418;28;20212;-67
2022/05/06 07:02:38;;;;;;;7.87;4.03;;;;;;;15.96;55.29;101358.34;5024810;28;20668;-67
2022/05/06 07:05:06;;;;;;;6.73;4.57;;;;;;;16.00;55.10;101370.41;5014398;28;20280;-68
2022/05/06 07:13:23;;;;;;;9.63;3.97;;;;;;;16.09;54.88;101366.75;5017217;28;20222;-68
2022/05/06 07:16:03;;;;;;;5.10;3.33;;;;;;;16.16;55.38;101359.75;5023142;28;20334;-68
2022/05/06 07:18:31;;;;;;;7.30;4.10;;;;;;;16.17;54.58;101366.78;5004778;28;20208;-68
2022/05/06 07:20:58;;;;;;;6.13;4.13;;;;;;;16.25;54.93;101365.13;5006961;28;20307;-68
2022/05/06 07:23:26;;;;;;;7.63;3.73;;;;;;;16.29;55.25;101366.44;5005974;28;20221;-68
2022/05/06 07:25:55;;;;;;;10.17;3.87;;;;;;;16.37;55.55;101369.16;5005666;28;20201;-68
2022/05/06 07:28:23;;;;;;;7.17;3.87;;;;;;;16.41;55.29;101373.19;5004490;28;20278;-67
2022/05/06 07:30:51;;;;;;;8.23;4.23;;;;;;;16.43;55.69;101372.03;5007478;28;20702;-67
2022/05/06 07:33:18;;;;;;;7.27;4.30;;;;;;;16.48;55.08;101368.84;5003188;28;20214;-68
2022/05/06 07:35:46;;;;;;;5.60;3.70;;;;;;;16.51;55.96;101374.72;5005568;28;20328;-68
2022/05/06 07:38:14;;;;;;;6.70;3.87;;;;;;;16.54;55.82;101377.03;5006378;28;20206;-67
2022/05/06 07:40:41;;;;;;;7.70;3.60;;;;;;;16.59;55.61;101384.59;5007167;28;20586;-68
2022/05/06 07:43:13;;;;;;;6.30;4.20;;;;;;;16.65;56.03;101378.59;5004907;28;20214;-67
2022/05/06 07:45:41;;;;;;;10.07;4.43;;;;;;;16.71;55.59;101372.56;5009070;28;20259;-67
2022/05/06 07:48:10;;;;;;;9.10;3.93;;;;;;;16.81;56.01;101367.91;5013795;28;20228;-68
2022/05/06 07:50:38;;;;;;;10.67;4.23;;;;;;;16.90;55.26;101374.94;5006211;28;20214;-68
2022/05/06 07:53:06;;;;;;;9.13;4.43;;;;;;;16.97;55.83;101374.28;5003977;28;20400;-67
2022/05/06 07:55:36;;;;;;;11.07;5.07;;;;;;;16.99;54.38;101373.09;5013829;28;20736;-68
2022/05/06 07:58:05;;;;;;;10.27;4.37;;;;;;;17.00;55.03;101371.25;5013472;28;20205;-68
2022/05/06 08:00:34;;;;;;;9.83;5.07;;;;;;;17.04;55.79;101369.94;5009005;28;20277;-67
2022/05/06 08:05:49;;;;;;;10.23;5.10;;;;;;;17.15;54.64;101377.63;5008599;28;20213;-68
2022/05/06 08:08:17;;;;;;;8.17;4.27;;;;;;;17.23;54.92;101375.78;5022431;28;20208;-68
2022/05/06 08:10:45;;;;;;;9.67;4.30;;;;;;;17.35;55.39;101376.25;5011022;28;20208;-68
2022/05/06 08:13:14;;;;;;;14.03;4.70;;;;;;;17.38;55.23;101370.56;5016954;28;20685;-67
2022/05/06 08:15:51;;;;;;;9.17;4.47;;;;;;;17.50;55.75;101376.41;5008661;28;20700;-67
2022/05/06 08:18:19;;;;;;;8.50;4.90;;;;;;;17.62;53.74;101375.03;5006369;28;20301;-67
2022/05/06 08:20:48;;;;;;;11.20;4.10;;;;;;;17.74;54.04;101378.19;5011808;28;20233;-67
2022/05/06 08:23:17;;;;;;;8.10;3.80;;;;;;;17.80;53.17;101377.50;5012160;28;20205;-67
2022/05/06 08:25:47;;;;;;;6.90;3.87;;;;;;;17.91;53.31;101379.81;5021363;28;20207;-67
2022/05/06 08:28:15;;;;;;;8.20;4.07;;;;;;;18.01;53.63;101372.41;5018813;28;20209;-67
2022/05/06 08:30:54;;;;;;;6.23;3.40;;;;;;;18.13;53.37;101375.50;5011682;28;20233;-68
2022/05/06 08:33:25;;;;;;;6.17;3.07;;;;;;;18.23;52.54;101368.06;5014482;28;20635;-69
2022/05/06 08:35:52;;;;;;;8.83;2.90;;;;;;;18.33;52.43;101369.53;5014331;28;20293;-69
2022/05/06 08:38:21;;;;;;;5.27;3.27;;;;;;;18.42;50.15;101367.63;5011738;28;20826;-69
2022/05/06 08:40:50;;;;;;;8.57;3.43;;;;;;;18.51;50.90;101366.56;5019830;28;20236;-69
2022/05/06 08:43:18;;;;;;;7.07;3.40;;;;;;;18.64;49.76;101366.03;5021638;28;20488;-68
2022/05/06 08:51:31;;;;;;;8.50;3.27;;;;;;;18.83;49.54;101372.72;5024285;28;20209;-68
2022/05/06 08:53:59;;;;;;;6.30;3.33;;;;;;;18.94;48.94;101373.16;5023654;28;20252;-69
2022/05/06 08:56:27;;;;;;;10.83;3.53;;;;;;;19.05;48.82;101377.28;5013955;28;20324;-69
2022/05/06 08:58:55;;;;;;;6.37;3.27;;;;;;;19.15;49.74;101378.69;5015740;28;20205;-68
2022/05/06 09:01:24;;;;;;;6.37;3.20;;;;;;;19.18;49.52;101378.31;5013436;28;20630;-67
2022/05/06 09:03:55;;;;;;;9.87;2.57;;;;;;;19.36;48.57;101377.13;5012667;28;20215;-67
2022/05/06 09:06:24;;;;;;;5.73;2.80;;;;;;;19.44;49.01;101368.97;5019712;28;20240;-67
2022/05/06 09:08:54;;;;;;;10.77;2.97;;;;;;;19.53;48.96;101373.28;5014428;28;20213;-66
2022/05/06 09:14:05;;;;;;;9.50;3.20;;;;;;;19.74;46.07;101368.00;5012934;28;20224;-67
2022/05/06 09:16:41;;;;;;;5.43;2.97;;;;;;;19.80;46.38;101369.94;5015694;28;20622;-65
2022/05/06 09:19:13;;;;;;;7.37;2.80;;;;;;;19.87;47.12;101370.91;5004663;28;20316;-66
2022/05/06 09:21:42;;;;;;;6.07;2.50;;;;;;;19.90;46.93;101369.66;5007786;28;20300;-67
2022/05/06 09:24:17;;;;;;;6.13;2.70;;;;;;;20.01;46.13;101365.66;5008936;28;20210;-67
2022/05/06 09:27:07;;;;;;;11.70;3.00;;;;;;;20.01;45.54;101368.34;5009106;28;20300;-68
2022/05/06 09:29:36;;;;;;;6.50;2.63;;;;;;;20.03;45.46;101356.38;5012052;28;20251;-69
2022/05/06 09:32:29;;;;;;;6.60;2.17;;;;;;;20.22;43.16;101358.50;5014995;28;20785;-69
2022/05/06 09:35:00;;;;;;;5.67;2.07;;;;;;;20.26;43.74;101358.91;5003491;28;20296;-68
2022/05/06 09:37:35;;;;;;;6.20;2.40;;;;;;;20.18;43.95;101357.19;5007190;28;20320;-68
2022/05/06 09:40:09;;;;;;;5.93;2.57;;;;;;;20.41;41.95;101361.59;5009606;28;20607;-68
2022/05/06 09:42:38;;;;;;;9.07;2.27;;;;;;;20.43;40.82;101365.78;5007161;28;20669;-69
2022/05/06 09:45:07;;;;;;;8.77;2.53;;;;;;;20.62;41.02;101365.16;5006656;28;20690;-69
2022/05/06 09:47:35;;;;;;;10.60;2.47;;;;;;;20.69;40.69;101372.47;5007865;28;20428;-68
2022/05/06 09:50:06;;;;;;;6.57;2.03;;;;;;;20.80;40.65;101371.94;5005799;28;20223;-68
2022/05/06 09:52:34;;;;;;;5.90;2.43;;;;;;;20.89;39.14;101368.09;5008441;28;20605;-68
2022/05/06 09:55:03;;;;;;;4.90;1.80;;;;;;;20.92;39.27;101376.66;5008373;28;20212;-69
2022/05/06 09:57:35;;;;;;;4.87;2.00;;;;;;;20.98;40.81;101372.31;5007386;28;20234;-69
2022/05/06 10:00:06;;;;;;;3.90;1.83;;;;;;;20.91;40.26;101363.34;5006410;28;20201;-69
2022/05/06 10:02:37;;;;;;;4.53;1.90;;;;;;;21.01;39.77;101361.16;5009707;28;20215;-69
2022/05/06 10:05:08;;;;;;;4.73;1.63;;;;;;;21.16;40.26;101361.06;5010295;28;20209;-69
2022/05/06 10:07:37;;;;;;;6.93;2.03;;;;;;;21.28;38.96;101364.94;5007170;28;20212;-69
2022/05/06 10:10:08;;;;;;;3.00;1.53;;;;;;;21.27;38.39;101358.69;5004184;28;20256;-70
2022/05/06 10:12:41;;;;;;;3.20;1.73;;;;;;;21.28;37.87;101364.94;5005389;28;20210;-68
2022/05/06 10:15:12;;;;;;;6.05;1.88;;;;;;;21.31;37.13;101349.16;5005056;28;20213;-69
2022/05/06 10:17:54;;;;;;;5.45;1.80;;;;;;;21.28;39.32;101360.38;5005849;28;20279;-69
2022/05/06 10:20:59;;;;;;;3.47;1.43;;;;;;;21.43;38.49;101356.72;5004997;28;20215;-69
2022/05/06 10:23:47;;;;;;;4.30;1.45;;;;;;;21.56;38.28;101351.38;5005641;28;20292;-69
2022/05/06 10:26:45;;;;;;;9.13;2.00;;;;;;;21.73;38.10;101352.72;5005047;28;20205;-69
2022/05/06 10:32:58;;;;;;;3.45;1.80;;;;;;;21.87;36.97;101349.09;5000296;28;20223;-70
2022/05/06 10:35:40;;;;;;;5.93;2.05;;;;;;;21.93;37.22;101342.88;5011760;28;20684;-69
2022/05/06 10:38:20;;;;;;;6.50;1.92;;;;;;;22.02;36.85;101348.97;5011735;28;20237;-69
2022/05/06 10:40:57;;;;;;;3.70;1.58;;;;;;;22.03;37.09;101343.38;5012848;28;20197;-69
2022/05/06 10:43:53;;;;;;;8.50;2.13;;;;;;;22.13;35.67;101329.47;5011494;28;20817;-69
2022/05/06 10:46:40;;;;;;;3.65;1.63;;;;;;;22.20;35.89;101333.03;5009900;28;20221;-69
2022/05/06 10:49:47;;;;;;;2.67;1.42;;;;;;;22.39;36.95;101317.91;5005497;28;20220;-70
2022/05/06 10:52:40;;;;;;;3.58;1.40;;;;;;;22.59;35.71;101331.44;5008702;28;20918;-69
2022/05/06 10:55:10;;;;;;;5.50;2.67;;;;;;;22.72;35.24;101329.59;5008037;28;20304;-69
2022/05/06 10:57:54;;;;;;;7.30;1.60;;;;;;;22.83;35.22;101323.59;5006927;28;20264;-69
2022/05/06 11:00:23;;;;;;;5.07;2.03;;;;;;;22.83;34.46;101318.19;5006440;28;20848;-69
2022/05/06 11:02:57;;;;;;;4.22;1.83;;;;;;;23.07;34.68;101335.66;5008258;28;20260;-70
2022/05/06 11:05:26;;;;;;;8.50;1.40;;;;;;;23.09;34.62;101330.03;5007005;28;20209;-69
2022/05/06 11:07:56;;;;;;;5.93;1.60;;;;;;;23.16;33.63;101318.16;5009306;28;20293;-69
2022/05/06 11:10:26;;;;;;;3.35;1.67;;;;;;;23.15;34.70;101326.47;5014281;28;20210;-69
2022/05/06 11:13:02;;;;;;;3.25;1.60;;;;;;;23.30;34.57;101327.09;5015681;28;20215;-69
2022/05/06 11:15:31;;;;;;;3.05;1.40;;;;;;;23.37;34.32;101330.63;5011387;28;20642;-70
2022/05/06 11:18:01;;;;;;;3.53;1.40;;;;;;;23.34;33.00;101320.22;5014355;28;20221;-69
2022/05/06 11:20:31;;;;;;;3.75;1.45;;;;;;;23.45;33.56;101324.97;5008921;28;20607;-69
2022/05/06 11:23:01;;;;;;;3.53;1.60;;;;;;;23.60;32.25;101311.22;5008654;28;20213;-70
2022/05/06 11:25:32;;;;;;;3.78;1.67;;;;;;;23.69;32.46;101317.22;5013792;28;20308;-70
2022/05/06 11:28:03;;;;;;;6.65;1.55;;;;;;;23.84;32.92;101315.06;5021732;28;20248;-71
2022/05/06 11:30:32;;;;;;;6.63;2.72;;;;;;;23.92;32.38;101306.75;5017617;28;20205;-70
2022/05/06 11:33:01;;;;;;;5.72;1.30;;;;;;;24.08;32.61;101310.81;5013507;28;20846;-70
2022/05/06 11:35:33;;;;;;;4.95;1.20;;;;;;;24.10;33.05;101300.59;5014150;28;20692;-69
2022/05/06 11:38:02;;;;;;;5.32;1.55;;;;;;;24.13;32.71;101300.97;5013180;28;20233;-69
2022/05/06 11:40:36;;;;;;;4.53;1.73;;;;;;;24.20;32.47;101304.47;5014493;28;20301;-70
2022/05/06 11:43:20;;;;;;;4.45;1.65;;;;;;;24.10;31.30;101297.88;5018139;28;20215;-70
2022/05/06 11:48:41;;;;;;;5.53;1.45;;;;;;;23.73;32.62;101299.53;5017846;28;20204;-69
2022/05/06 11:51:18;;;;;;;4.15;1.50;;;;;;;23.50;32.41;101298.13;5017738;28;20202;-69
2022/05/06 11:53:46;;;;;;;9.27;1.63;;;;;;;23.23;33.29;101297.31;5008296;28;20317;-68
2022/05/06 11:56:20;;;;;;;3.88;1.20;;;;;;;23.03;32.94;101295.72;5015050;28;20247;-69
2022/05/06 11:58:49;;;;;;;4.18;1.60;;;;;;;22.89;32.81;101284.91;5028471;28;20229;-69
2022/05/06 12:01:25;;;;;;;3.35;1.45;;;;;;;22.69;34.23;101284.03;5021688;28;20300;-68
2022/05/06 12:03:54;;;;;;;5.60;1.50;;;;;;;22.53;34.81;101290.69;5022039;28;20653;-68
2022/05/06 12:06:32;;;;;;;2.97;1.52;;;;;;;22.44;34.26;101286.50;5017984;28;20254;-67
2022/05/06 12:09:11;;;;;;;3.60;1.40;;;;;;;22.37;34.32;101295.66;5015623;28;20213;-68
2022/05/06 12:11:39;;;;;;;3.92;1.42;;;;;;;22.26;34.40;101297.06;5013259;28;20267;-68
2022/05/06 12:14:10;;;;;;;3.85;1.48;;;;;;;22.18;34.21;101289.16;5014374;28;20212;-68
2022/05/06 12:16:53;;;;;;;4.30;1.33;;;;;;;22.06;34.24;101290.81;5018577;28;20288;-69
2022/05/06 12:19:33;;;;;;;3.05;1.10;;;;;;;21.89;35.60;101276.81;5024894;28;20237;-68